Flight Information

DEPARTURE
BOZEMAN, MT
Elevation:
4473
Runways:
11/29 - 5050x75 - ASPH-G
11G/29G - 2802x80 - TURF-G
12/30 - 8994x150 - ASPH-G
3/21 - 2650x75 - ASPH-G
Tower:
118.2
DESTINATION
,
Elevation:
TPA:
1000 (est.)


6274.3 NM75° True-16° Var58° HDG

Flight Plan:
(click to file on line)

1. Type
2. Aircraft Identification
3. Aircraft Type / Special Equipment
4. True Airspeed
kts
5. Departure Airport
(ICAO code)
6. Arriving Airport
(ICAO code)
7. Cruising Altitude
ft
8. Alternate Airport
(ICAO code)
9. Route of Flight
10. Remarks


00:00:00 Departure ATIS: Destination ATIS:

Clearance Limit:
Route:
Altitude: Expect in minutes
Frequency:
Transponder: (7500 Hijack / 7600 Lost Comms / 7700 Emergency)


KBZN 110456Z AUTO 31018G28KT 10SM OVC100 01/M13 A2993 RMK AO2 PK WND 31028/0447 SLP137 T00061128
Time: 2021-04-11T04:56:00Z
1618117189
Winds: 310 @ 18 kts
Gusting:28 kts
Visibility: 10.0 sm
Clouds (AGL): OVC 10000
Temperature: 0.6 C
Dew Point: -12.8 C
Pressure: 29.929134 in Hgbr


Notes:

Data extracted from FAA Digital Chart Supplement. Effective: 0901Z Thursday, Feb 25, 2021 to 0901Z Thursday, APR 22, 2021
Current ATIS data is provided courtisy of PilotEdge.